sensor_id;sensor_type;location;lat;lon;timestamp;P1;durP1;ratioP1;P2;durP2;ratioP2
5452;SDS011;2749;53.576;9.822;2023-09-18T00:01:27;5.30;;;4.90;;
5452;SDS011;2749;53.576;9.822;2023-09-18T00:03:53;6.50;;;5.90;;
5452;SDS011;2749;53.576;9.822;2023-09-18T00:06:19;7.63;;;6.20;;
5452;SDS011;2749;53.576;9.822;2023-09-18T00:08:48;6.27;;;5.67;;
5452;SDS011;2749;53.576;9.822;2023-09-18T00:11:16;5.90;;;5.40;;
5452;SDS011;2749;53.576;9.822;2023-09-18T00:13:41;7.40;;;5.63;;
5452;SDS011;2749;53.576;9.822;2023-09-18T00:16:07;7.00;;;6.50;;
5452;SDS011;2749;53.576;9.822;2023-09-18T00:18:33;6.23;;;5.57;;
5452;SDS011;2749;53.576;9.822;2023-09-18T00:20:59;6.10;;;5.50;;
5452;SDS011;2749;53.576;9.822;2023-09-18T00:23:25;5.90;;;5.40;;
5452;SDS011;2749;53.576;9.822;2023-09-18T00:25:51;6.63;;;6.13;;
5452;SDS011;2749;53.576;9.822;2023-09-18T00:28:17;5.83;;;5.33;;
5452;SDS011;2749;53.576;9.822;2023-09-18T00:30:46;6.27;;;5.73;;
5452;SDS011;2749;53.576;9.822;2023-09-18T00:33:13;6.30;;;5.70;;
5452;SDS011;2749;53.576;9.822;2023-09-18T00:35:39;6.67;;;5.97;;
5452;SDS011;2749;53.576;9.822;2023-09-18T00:38:05;6.87;;;6.27;;
5452;SDS011;2749;53.576;9.822;2023-09-18T00:40:32;6.90;;;5.80;;
5452;SDS011;2749;53.576;9.822;2023-09-18T00:42:58;7.70;;;6.13;;
5452;SDS011;2749;53.576;9.822;2023-09-18T00:45:24;6.50;;;5.90;;
5452;SDS011;2749;53.576;9.822;2023-09-18T00:47:50;6.33;;;5.73;;
5452;SDS011;2749;53.576;9.822;2023-09-18T00:50:16;10.17;;;5.93;;
5452;SDS011;2749;53.576;9.822;2023-09-18T00:52:42;6.67;;;6.10;;
5452;SDS011;2749;53.576;9.822;2023-09-18T00:55:08;6.07;;;5.57;;
5452;SDS011;2749;53.576;9.822;2023-09-18T00:57:34;8.20;;;6.43;;
5452;SDS011;2749;53.576;9.822;2023-09-18T01:00:01;6.87;;;6.27;;
5452;SDS011;2749;53.576;9.822;2023-09-18T01:02:27;6.73;;;6.10;;
5452;SDS011;2749;53.576;9.822;2023-09-18T01:04:53;6.80;;;6.23;;
5452;SDS011;2749;53.576;9.822;2023-09-18T01:07:19;6.03;;;5.60;;
5452;SDS011;2749;53.576;9.822;2023-09-18T01:09:45;6.70;;;6.10;;
5452;SDS011;2749;53.576;9.822;2023-09-18T01:12:17;6.80;;;6.20;;
5452;SDS011;2749;53.576;9.822;2023-09-18T01:14:49;7.90;;;5.53;;
5452;SDS011;2749;53.576;9.822;2023-09-18T01:17:16;7.00;;;6.40;;
5452;SDS011;2749;53.576;9.822;2023-09-18T01:19:43;7.03;;;6.27;;
5452;SDS011;2749;53.576;9.822;2023-09-18T01:22:18;6.40;;;5.90;;
5452;SDS011;2749;53.576;9.822;2023-09-18T01:24:44;6.23;;;5.63;;
5452;SDS011;2749;53.576;9.822;2023-09-18T01:27:12;6.20;;;5.70;;
5452;SDS011;2749;53.576;9.822;2023-09-18T01:29:39;6.40;;;5.80;;
5452;SDS011;2749;53.576;9.822;2023-09-18T01:32:05;6.77;;;6.17;;
5452;SDS011;2749;53.576;9.822;2023-09-18T01:34:32;7.60;;;6.10;;
5452;SDS011;2749;53.576;9.822;2023-09-18T01:37:01;6.57;;;6.07;;
5452;SDS011;2749;53.576;9.822;2023-09-18T01:39:27;6.00;;;5.50;;
5452;SDS011;2749;53.576;9.822;2023-09-18T01:41:56;6.43;;;5.93;;
5452;SDS011;2749;53.576;9.822;2023-09-18T01:44:23;5.43;;;5.03;;
5452;SDS011;2749;53.576;9.822;2023-09-18T01:46:49;9.77;;;6.30;;
5452;SDS011;2749;53.576;9.822;2023-09-18T01:49:16;6.73;;;6.23;;
5452;SDS011;2749;53.576;9.822;2023-09-18T01:51:42;6.70;;;6.00;;
5452;SDS011;2749;53.576;9.822;2023-09-18T01:54:08;6.53;;;5.90;;
5452;SDS011;2749;53.576;9.822;2023-09-18T01:56:33;6.97;;;6.40;;
5452;SDS011;2749;53.576;9.822;2023-09-18T01:58:59;5.77;;;5.33;;
5452;SDS011;2749;53.576;9.822;2023-09-18T02:01:25;6.33;;;5.83;;
5452;SDS011;2749;53.576;9.822;2023-09-18T02:03:51;6.40;;;5.90;;
5452;SDS011;2749;53.576;9.822;2023-09-18T02:06:17;6.17;;;5.53;;
5452;SDS011;2749;53.576;9.822;2023-09-18T02:08:43;7.63;;;6.93;;
5452;SDS011;2749;53.576;9.822;2023-09-18T02:11:09;6.53;;;5.87;;
5452;SDS011;2749;53.576;9.822;2023-09-18T02:13:35;6.87;;;6.17;;
5452;SDS011;2749;53.576;9.822;2023-09-18T02:16:01;6.40;;;5.90;;
5452;SDS011;2749;53.576;9.822;2023-09-18T02:18:28;5.90;;;5.40;;
5452;SDS011;2749;53.576;9.822;2023-09-18T02:20:54;6.67;;;6.10;;
5452;SDS011;2749;53.576;9.822;2023-09-18T02:23:20;6.23;;;5.60;;
5452;SDS011;2749;53.576;9.822;2023-09-18T02:25:46;6.50;;;5.70;;
5452;SDS011;2749;53.576;9.822;2023-09-18T02:28:12;6.40;;;6.00;;
5452;SDS011;2749;53.576;9.822;2023-09-18T02:30:38;6.37;;;5.87;;
5452;SDS011;2749;53.576;9.822;2023-09-18T02:33:04;8.80;;;6.43;;
5452;SDS011;2749;53.576;9.822;2023-09-18T02:35:30;6.43;;;5.77;;
5452;SDS011;2749;53.576;9.822;2023-09-18T02:37:56;7.07;;;6.47;;
5452;SDS011;2749;53.576;9.822;2023-09-18T02:40:22;6.80;;;6.20;;
5452;SDS011;2749;53.576;9.822;2023-09-18T02:42:48;6.90;;;6.10;;
5452;SDS011;2749;53.576;9.822;2023-09-18T02:45:13;6.73;;;6.17;;
5452;SDS011;2749;53.576;9.822;2023-09-18T02:47:39;6.20;;;5.70;;
5452;SDS011;2749;53.576;9.822;2023-09-18T02:50:06;6.47;;;6.00;;
5452;SDS011;2749;53.576;9.822;2023-09-18T02:52:32;6.53;;;6.03;;
5452;SDS011;2749;53.576;9.822;2023-09-18T02:54:58;6.83;;;6.23;;
5452;SDS011;2749;53.576;9.822;2023-09-18T02:57:24;6.43;;;5.83;;
5452;SDS011;2749;53.576;9.822;2023-09-18T02:59:50;8.13;;;7.30;;
5452;SDS011;2749;53.576;9.822;2023-09-18T03:02:16;6.90;;;6.20;;
5452;SDS011;2749;53.576;9.822;2023-09-18T03:04:42;6.33;;;5.83;;
5452;SDS011;2749;53.576;9.822;2023-09-18T03:07:08;8.10;;;7.47;;
5452;SDS011;2749;53.576;9.822;2023-09-18T03:09:34;7.03;;;6.23;;
5452;SDS011;2749;53.576;9.822;2023-09-18T03:12:00;7.07;;;6.50;;
5452;SDS011;2749;53.576;9.822;2023-09-18T03:14:27;7.03;;;6.43;;
5452;SDS011;2749;53.576;9.822;2023-09-18T03:16:53;7.97;;;7.27;;
5452;SDS011;2749;53.576;9.822;2023-09-18T03:19:19;7.30;;;6.60;;
5452;SDS011;2749;53.576;9.822;2023-09-18T03:21:47;7.43;;;6.80;;
5452;SDS011;2749;53.576;9.822;2023-09-18T03:24:13;7.43;;;6.70;;
5452;SDS011;2749;53.576;9.822;2023-09-18T03:26:39;11.00;;;5.90;;
5452;SDS011;2749;53.576;9.822;2023-09-18T03:29:04;7.13;;;6.37;;
5452;SDS011;2749;53.576;9.822;2023-09-18T03:31:30;7.00;;;6.40;;
5452;SDS011;2749;53.576;9.822;2023-09-18T03:33:56;8.40;;;6.90;;
5452;SDS011;2749;53.576;9.822;2023-09-18T03:36:22;7.93;;;7.23;;
5452;SDS011;2749;53.576;9.822;2023-09-18T03:38:48;7.73;;;7.03;;
5452;SDS011;2749;53.576;9.822;2023-09-18T03:41:14;6.63;;;6.13;;
5452;SDS011;2749;53.576;9.822;2023-09-18T03:43:40;6.83;;;6.23;;
5452;SDS011;2749;53.576;9.822;2023-09-18T03:46:07;7.30;;;6.70;;
5452;SDS011;2749;53.576;9.822;2023-09-18T03:48:33;7.70;;;7.10;;
5452;SDS011;2749;53.576;9.822;2023-09-18T03:51:05;6.93;;;6.43;;
5452;SDS011;2749;53.576;9.822;2023-09-18T03:53:32;7.87;;;7.07;;
5452;SDS011;2749;53.576;9.822;2023-09-18T03:55:58;7.33;;;6.23;;
5452;SDS011;2749;53.576;9.822;2023-09-18T03:58:24;7.13;;;6.53;;
5452;SDS011;2749;53.576;9.822;2023-09-18T04:00:50;7.07;;;6.50;;
5452;SDS011;2749;53.576;9.822;2023-09-18T04:03:16;9.60;;;7.37;;
5452;SDS011;2749;53.576;9.822;2023-09-18T04:05:42;7.23;;;6.63;;
5452;SDS011;2749;53.576;9.822;2023-09-18T04:08:08;8.00;;;7.30;;
5452;SDS011;2749;53.576;9.822;2023-09-18T04:10:34;7.53;;;6.83;;
5452;SDS011;2749;53.576;9.822;2023-09-18T04:13:00;8.37;;;6.40;;
5452;SDS011;2749;53.576;9.822;2023-09-18T04:15:26;7.87;;;7.20;;
5452;SDS011;2749;53.576;9.822;2023-09-18T04:17:55;9.80;;;7.40;;
5452;SDS011;2749;53.576;9.822;2023-09-18T04:20:21;8.00;;;7.30;;
5452;SDS011;2749;53.576;9.822;2023-09-18T04:22:50;7.90;;;7.20;;
5452;SDS011;2749;53.576;9.822;2023-09-18T04:25:33;7.90;;;7.20;;
5452;SDS011;2749;53.576;9.822;2023-09-18T04:28:00;8.53;;;7.83;;
5452;SDS011;2749;53.576;9.822;2023-09-18T04:30:26;8.40;;;7.70;;
5452;SDS011;2749;53.576;9.822;2023-09-18T04:32:52;8.00;;;7.40;;
5452;SDS011;2749;53.576;9.822;2023-09-18T04:35:18;7.23;;;6.60;;
5452;SDS011;2749;53.576;9.822;2023-09-18T04:37:44;7.47;;;6.77;;
5452;SDS011;2749;53.576;9.822;2023-09-18T04:40:10;8.77;;;6.20;;
5452;SDS011;2749;53.576;9.822;2023-09-18T04:42:36;8.20;;;7.40;;
5452;SDS011;2749;53.576;9.822;2023-09-18T04:45:03;8.30;;;7.60;;
5452;SDS011;2749;53.576;9.822;2023-09-18T04:47:29;8.77;;;8.17;;
5452;SDS011;2749;53.576;9.822;2023-09-18T04:49:54;8.00;;;7.30;;
5452;SDS011;2749;53.576;9.822;2023-09-18T04:52:20;7.97;;;7.27;;
5452;SDS011;2749;53.576;9.822;2023-09-18T04:54:46;8.13;;;7.33;;
5452;SDS011;2749;53.576;9.822;2023-09-18T04:57:12;7.83;;;7.13;;
5452;SDS011;2749;53.576;9.822;2023-09-18T04:59:38;7.77;;;7.10;;
5452;SDS011;2749;53.576;9.822;2023-09-18T05:02:04;7.37;;;6.77;;
5452;SDS011;2749;53.576;9.822;2023-09-18T05:04:30;7.90;;;7.10;;
5452;SDS011;2749;53.576;9.822;2023-09-18T05:06:56;13.03;;;8.83;;
5452;SDS011;2749;53.576;9.822;2023-09-18T05:09:22;10.57;;;8.40;;
5452;SDS011;2749;53.576;9.822;2023-09-18T05:11:48;8.60;;;7.63;;
5452;SDS011;2749;53.576;9.822;2023-09-18T05:14:14;9.73;;;7.13;;
5452;SDS011;2749;53.576;9.822;2023-09-18T05:16:41;7.63;;;7.03;;
5452;SDS011;2749;53.576;9.822;2023-09-18T05:19:10;9.13;;;7.60;;
5452;SDS011;2749;53.576;9.822;2023-09-18T05:21:37;7.67;;;7.00;;
5452;SDS011;2749;53.576;9.822;2023-09-18T05:24:03;8.10;;;7.20;;
5452;SDS011;2749;53.576;9.822;2023-09-18T05:26:29;7.73;;;7.13;;
5452;SDS011;2749;53.576;9.822;2023-09-18T05:28:55;10.53;;;7.17;;
5452;SDS011;2749;53.576;9.822;2023-09-18T05:31:22;7.70;;;7.00;;
5452;SDS011;2749;53.576;9.822;2023-09-18T05:33:49;8.03;;;7.23;;
5452;SDS011;2749;53.576;9.822;2023-09-18T05:36:15;7.00;;;6.50;;
5452;SDS011;2749;53.576;9.822;2023-09-18T05:38:41;7.60;;;6.60;;
5452;SDS011;2749;53.576;9.822;2023-09-18T05:41:08;8.90;;;8.00;;
5452;SDS011;2749;53.576;9.822;2023-09-18T05:43:34;8.60;;;7.23;;
5452;SDS011;2749;53.576;9.822;2023-09-18T05:46:01;8.40;;;7.60;;
5452;SDS011;2749;53.576;9.822;2023-09-18T05:48:27;8.60;;;7.90;;
5452;SDS011;2749;53.576;9.822;2023-09-18T05:50:52;9.17;;;8.27;;
5452;SDS011;2749;53.576;9.822;2023-09-18T05:53:19;7.57;;;6.83;;
5452;SDS011;2749;53.576;9.822;2023-09-18T05:55:47;9.63;;;8.03;;
5452;SDS011;2749;53.576;9.822;2023-09-18T05:58:13;11.00;;;8.27;;
5452;SDS011;2749;53.576;9.822;2023-09-18T06:00:39;7.97;;;7.17;;
5452;SDS011;2749;53.576;9.822;2023-09-18T06:03:05;8.00;;;7.20;;
5452;SDS011;2749;53.576;9.822;2023-09-18T06:05:31;8.97;;;8.17;;
5452;SDS011;2749;53.576;9.822;2023-09-18T06:07:59;7.63;;;6.83;;
5452;SDS011;2749;53.576;9.822;2023-09-18T06:10:25;8.83;;;7.80;;
5452;SDS011;2749;53.576;9.822;2023-09-18T06:12:51;9.40;;;7.37;;
5452;SDS011;2749;53.576;9.822;2023-09-18T06:15:17;7.50;;;6.73;;
5452;SDS011;2749;53.576;9.822;2023-09-18T06:17:43;7.63;;;7.03;;
5452;SDS011;2749;53.576;9.822;2023-09-18T06:20:10;7.50;;;6.90;;
5452;SDS011;2749;53.576;9.822;2023-09-18T06:22:37;8.23;;;7.53;;
5452;SDS011;2749;53.576;9.822;2023-09-18T06:25:04;7.60;;;6.90;;
5452;SDS011;2749;53.576;9.822;2023-09-18T06:27:30;7.83;;;7.10;;
5452;SDS011;2749;53.576;9.822;2023-09-18T06:29:57;7.50;;;6.80;;
5452;SDS011;2749;53.576;9.822;2023-09-18T06:32:23;7.63;;;7.03;;
5452;SDS011;2749;53.576;9.822;2023-09-18T06:34:49;8.27;;;7.57;;
5452;SDS011;2749;53.576;9.822;2023-09-18T06:37:15;8.10;;;7.40;;
5452;SDS011;2749;53.576;9.822;2023-09-18T06:39:41;7.10;;;6.50;;
5452;SDS011;2749;53.576;9.822;2023-09-18T06:42:07;7.50;;;6.80;;
5452;SDS011;2749;53.576;9.822;2023-09-18T06:44:34;8.03;;;7.33;;
5452;SDS011;2749;53.576;9.822;2023-09-18T06:47:00;8.30;;;7.50;;
5452;SDS011;2749;53.576;9.822;2023-09-18T06:49:26;12.53;;;7.90;;
5452;SDS011;2749;53.576;9.822;2023-09-18T06:51:52;7.57;;;6.87;;
5452;SDS011;2749;53.576;9.822;2023-09-18T06:54:18;8.33;;;7.30;;
5452;SDS011;2749;53.576;9.822;2023-09-18T06:56:44;7.90;;;7.07;;
5452;SDS011;2749;53.576;9.822;2023-09-18T06:59:10;8.50;;;7.53;;
5452;SDS011;2749;53.576;9.822;2023-09-18T07:01:39;7.30;;;6.70;;
5452;SDS011;2749;53.576;9.822;2023-09-18T07:04:06;7.43;;;6.40;;
5452;SDS011;2749;53.576;9.822;2023-09-18T07:06:32;9.13;;;8.20;;
5452;SDS011;2749;53.576;9.822;2023-09-18T07:08:58;7.00;;;6.30;;
5452;SDS011;2749;53.576;9.822;2023-09-18T07:11:24;7.20;;;6.60;;
5452;SDS011;2749;53.576;9.822;2023-09-18T07:13:50;7.97;;;7.20;;
5452;SDS011;2749;53.576;9.822;2023-09-18T07:16:16;7.20;;;6.60;;
5452;SDS011;2749;53.576;9.822;2023-09-18T07:18:42;8.17;;;7.50;;
5452;SDS011;2749;53.576;9.822;2023-09-18T07:21:08;7.13;;;6.53;;
5452;SDS011;2749;53.576;9.822;2023-09-18T07:23:34;8.13;;;7.50;;
5452;SDS011;2749;53.576;9.822;2023-09-18T07:26:02;7.80;;;7.17;;
5452;SDS011;2749;53.576;9.822;2023-09-18T07:28:27;6.97;;;6.47;;
5452;SDS011;2749;53.576;9.822;2023-09-18T07:30:54;7.10;;;6.50;;
5452;SDS011;2749;53.576;9.822;2023-09-18T07:33:20;8.27;;;6.50;;
5452;SDS011;2749;53.576;9.822;2023-09-18T07:35:47;6.50;;;6.00;;
5452;SDS011;2749;53.576;9.822;2023-09-18T07:38:13;7.97;;;7.27;;
5452;SDS011;2749;53.576;9.822;2023-09-18T07:40:39;6.83;;;6.33;;
5452;SDS011;2749;53.576;9.822;2023-09-18T07:43:05;9.20;;;8.07;;
5452;SDS011;2749;53.576;9.822;2023-09-18T07:45:31;6.30;;;5.70;;
5452;SDS011;2749;53.576;9.822;2023-09-18T07:47:57;7.37;;;6.73;;
5452;SDS011;2749;53.576;9.822;2023-09-18T07:50:23;6.33;;;5.83;;
5452;SDS011;2749;53.576;9.822;2023-09-18T07:52:49;6.60;;;6.10;;
5452;SDS011;2749;53.576;9.822;2023-09-18T07:55:15;6.77;;;6.17;;
5452;SDS011;2749;53.576;9.822;2023-09-18T07:57:41;8.90;;;8.00;;
5452;SDS011;2749;53.576;9.822;2023-09-18T08:00:09;6.60;;;6.00;;
5452;SDS011;2749;53.576;9.822;2023-09-18T08:02:40;6.90;;;6.20;;
5452;SDS011;2749;53.576;9.822;2023-09-18T08:05:06;9.53;;;8.47;;
5452;SDS011;2749;53.576;9.822;2023-09-18T08:07:33;8.23;;;6.97;;
5452;SDS011;2749;53.576;9.822;2023-09-18T08:10:00;9.13;;;8.23;;
5452;SDS011;2749;53.576;9.822;2023-09-18T08:12:26;12.70;;;9.57;;
5452;SDS011;2749;53.576;9.822;2023-09-18T08:14:52;7.97;;;7.20;;
5452;SDS011;2749;53.576;9.822;2023-09-18T08:17:19;8.63;;;7.17;;
5452;SDS011;2749;53.576;9.822;2023-09-18T08:19:45;10.37;;;9.20;;
5452;SDS011;2749;53.576;9.822;2023-09-18T08:22:11;13.50;;;7.37;;
5452;SDS011;2749;53.576;9.822;2023-09-18T08:24:40;14.83;;;10.77;;
5452;SDS011;2749;53.576;9.822;2023-09-18T08:27:06;9.53;;;8.50;;
5452;SDS011;2749;53.576;9.822;2023-09-18T08:29:32;7.63;;;6.73;;
5452;SDS011;2749;53.576;9.822;2023-09-18T08:31:58;9.97;;;7.30;;
5452;SDS011;2749;53.576;9.822;2023-09-18T08:34:24;13.90;;;6.97;;
5452;SDS011;2749;53.576;9.822;2023-09-18T08:36:50;11.53;;;8.43;;
5452;SDS011;2749;53.576;9.822;2023-09-18T08:39:16;8.87;;;7.83;;
5452;SDS011;2749;53.576;9.822;2023-09-18T08:41:43;9.33;;;8.10;;
5452;SDS011;2749;53.576;9.822;2023-09-18T08:44:09;9.07;;;8.27;;
5452;SDS011;2749;53.576;9.822;2023-09-18T08:46:35;7.10;;;6.50;;
5452;SDS011;2749;53.576;9.822;2023-09-18T08:49:01;8.57;;;7.77;;
5452;SDS011;2749;53.576;9.822;2023-09-18T08:51:28;9.30;;;8.00;;
5452;SDS011;2749;53.576;9.822;2023-09-18T08:53:54;8.27;;;7.47;;
5452;SDS011;2749;53.576;9.822;2023-09-18T08:56:21;7.93;;;7.13;;
5452;SDS011;2749;53.576;9.822;2023-09-18T08:58:47;9.17;;;6.47;;
5452;SDS011;2749;53.576;9.822;2023-09-18T09:01:13;10.13;;;7.40;;
5452;SDS011;2749;53.576;9.822;2023-09-18T09:03:39;9.33;;;8.33;;
5452;SDS011;2749;53.576;9.822;2023-09-18T09:06:06;9.23;;;8.43;;
5452;SDS011;2749;53.576;9.822;2023-09-18T09:08:33;9.33;;;8.10;;
5452;SDS011;2749;53.576;9.822;2023-09-18T09:10:59;8.10;;;7.30;;
5452;SDS011;2749;53.576;9.822;2023-09-18T09:13:25;12.67;;;8.83;;
5452;SDS011;2749;53.576;9.822;2023-09-18T09:15:52;7.63;;;6.87;;
5452;SDS011;2749;53.576;9.822;2023-09-18T09:18:20;10.90;;;9.80;;
5452;SDS011;2749;53.576;9.822;2023-09-18T09:20:59;8.43;;;6.80;;
5452;SDS011;2749;53.576;9.822;2023-09-18T09:23:28;7.80;;;6.53;;
5452;SDS011;2749;53.576;9.822;2023-09-18T09:26:11;8.17;;;7.43;;
5452;SDS011;2749;53.576;9.822;2023-09-18T09:28:37;6.40;;;5.90;;
5452;SDS011;2749;53.576;9.822;2023-09-18T09:31:03;7.30;;;6.60;;
5452;SDS011;2749;53.576;9.822;2023-09-18T09:33:30;6.87;;;6.30;;
5452;SDS011;2749;53.576;9.822;2023-09-18T09:35:56;6.90;;;6.13;;
5452;SDS011;2749;53.576;9.822;2023-09-18T09:38:30;10.43;;;7.07;;
5452;SDS011;2749;53.576;9.822;2023-09-18T09:41:02;9.33;;;6.40;;
5452;SDS011;2749;53.576;9.822;2023-09-18T09:43:31;8.30;;;5.10;;
5452;SDS011;2749;53.576;9.822;2023-09-18T09:45:58;6.80;;;6.30;;
5452;SDS011;2749;53.576;9.822;2023-09-18T09:48:24;8.50;;;5.97;;
5452;SDS011;2749;53.576;9.822;2023-09-18T09:50:50;5.03;;;4.63;;
5452;SDS011;2749;53.576;9.822;2023-09-18T09:53:17;7.90;;;6.20;;
5452;SDS011;2749;53.576;9.822;2023-09-18T09:55:43;8.90;;;5.60;;
5452;SDS011;2749;53.576;9.822;2023-09-18T09:58:10;5.47;;;4.93;;
5452;SDS011;2749;53.576;9.822;2023-09-18T10:00:39;5.30;;;4.40;;
5452;SDS011;2749;53.576;9.822;2023-09-18T10:03:08;8.00;;;4.80;;
5452;SDS011;2749;53.576;9.822;2023-09-18T10:05:35;5.83;;;5.20;;
5452;SDS011;2749;53.576;9.822;2023-09-18T10:08:02;7.00;;;5.00;;
5452;SDS011;2749;53.576;9.822;2023-09-18T10:10:33;9.10;;;5.23;;
5452;SDS011;2749;53.576;9.822;2023-09-18T10:13:01;6.50;;;5.47;;
5452;SDS011;2749;53.576;9.822;2023-09-18T10:15:28;9.27;;;4.90;;
5452;SDS011;2749;53.576;9.822;2023-09-18T10:17:56;5.17;;;4.50;;
5452;SDS011;2749;53.576;9.822;2023-09-18T10:20:24;6.03;;;4.23;;
5452;SDS011;2749;53.576;9.822;2023-09-18T10:22:52;9.07;;;5.27;;
5452;SDS011;2749;53.576;9.822;2023-09-18T10:25:20;5.27;;;4.53;;
5452;SDS011;2749;53.576;9.822;2023-09-18T10:27:48;5.03;;;4.53;;
5452;SDS011;2749;53.576;9.822;2023-09-18T10:30:14;4.60;;;4.13;;
5452;SDS011;2749;53.576;9.822;2023-09-18T10:32:43;7.07;;;5.43;;
5452;SDS011;2749;53.576;9.822;2023-09-18T10:35:10;7.80;;;5.20;;
5452;SDS011;2749;53.576;9.822;2023-09-18T10:37:37;6.03;;;4.03;;
5452;SDS011;2749;53.576;9.822;2023-09-18T10:40:03;5.93;;;4.90;;
5452;SDS011;2749;53.576;9.822;2023-09-18T10:42:33;7.47;;;4.27;;
5452;SDS011;2749;53.576;9.822;2023-09-18T10:45:00;5.90;;;5.30;;
5452;SDS011;2749;53.576;9.822;2023-09-18T10:47:26;10.13;;;5.10;;
5452;SDS011;2749;53.576;9.822;2023-09-18T10:49:53;5.37;;;4.87;;
5452;SDS011;2749;53.576;9.822;2023-09-18T10:52:19;6.27;;;4.40;;
5452;SDS011;2749;53.576;9.822;2023-09-18T10:54:45;5.83;;;4.37;;
5452;SDS011;2749;53.576;9.822;2023-09-18T10:57:11;8.80;;;4.77;;
5452;SDS011;2749;53.576;9.822;2023-09-18T10:59:44;4.53;;;4.13;;
5452;SDS011;2749;53.576;9.822;2023-09-18T11:02:13;5.43;;;4.60;;
5452;SDS011;2749;53.576;9.822;2023-09-18T11:04:40;17.23;;;4.90;;
5452;SDS011;2749;53.576;9.822;2023-09-18T11:07:07;5.20;;;4.13;;
5452;SDS011;2749;53.576;9.822;2023-09-18T11:09:44;6.53;;;4.70;;
5452;SDS011;2749;53.576;9.822;2023-09-18T11:12:10;7.27;;;4.43;;
5452;SDS011;2749;53.576;9.822;2023-09-18T11:14:43;9.77;;;6.80;;
5452;SDS011;2749;53.576;9.822;2023-09-18T11:22:34;4.00;;;3.53;;
5452;SDS011;2749;53.576;9.822;2023-09-18T11:27:53;6.37;;;4.50;;
5452;SDS011;2749;53.576;9.822;2023-09-18T11:30:21;6.80;;;5.00;;
5452;SDS011;2749;53.576;9.822;2023-09-18T11:32:49;5.67;;;4.43;;
5452;SDS011;2749;53.576;9.822;2023-09-18T11:35:14;4.77;;;4.37;;
5452;SDS011;2749;53.576;9.822;2023-09-18T11:37:43;5.70;;;4.33;;
5452;SDS011;2749;53.576;9.822;2023-09-18T11:45:41;5.70;;;4.03;;
5452;SDS011;2749;53.576;9.822;2023-09-18T11:48:07;5.53;;;4.30;;
5452;SDS011;2749;53.576;9.822;2023-09-18T11:50:37;7.60;;;4.40;;
5452;SDS011;2749;53.576;9.822;2023-09-18T11:53:03;10.83;;;4.30;;
5452;SDS011;2749;53.576;9.822;2023-09-18T11:55:29;7.57;;;4.67;;
5452;SDS011;2749;53.576;9.822;2023-09-18T11:57:55;6.03;;;4.40;;
5452;SDS011;2749;53.576;9.822;2023-09-18T12:00:26;6.80;;;4.03;;
5452;SDS011;2749;53.576;9.822;2023-09-18T12:02:54;6.03;;;4.00;;
5452;SDS011;2749;53.576;9.822;2023-09-18T12:05:20;10.00;;;5.90;;
5452;SDS011;2749;53.576;9.822;2023-09-18T12:07:51;6.63;;;4.47;;
5452;SDS011;2749;53.576;9.822;2023-09-18T12:10:17;5.67;;;3.93;;
5452;SDS011;2749;53.576;9.822;2023-09-18T12:12:44;8.60;;;5.03;;
5452;SDS011;2749;53.576;9.822;2023-09-18T12:15:13;6.47;;;4.43;;
5452;SDS011;2749;53.576;9.822;2023-09-18T12:17:40;7.50;;;4.13;;
5452;SDS011;2749;53.576;9.822;2023-09-18T12:20:06;4.63;;;4.17;;
5452;SDS011;2749;53.576;9.822;2023-09-18T12:22:32;9.23;;;4.03;;
5452;SDS011;2749;53.576;9.822;2023-09-18T12:25:11;4.93;;;3.17;;
5452;SDS011;2749;53.576;9.822;2023-09-18T12:27:37;4.67;;;4.27;;
5452;SDS011;2749;53.576;9.822;2023-09-18T12:30:03;5.47;;;3.57;;
5452;SDS011;2749;53.576;9.822;2023-09-18T12:32:30;6.10;;;4.10;;
5452;SDS011;2749;53.576;9.822;2023-09-18T12:34:57;14.73;;;3.40;;
5452;SDS011;2749;53.576;9.822;2023-09-18T12:37:23;10.23;;;4.30;;
5452;SDS011;2749;53.576;9.822;2023-09-18T12:39:49;6.60;;;4.40;;
5452;SDS011;2749;53.576;9.822;2023-09-18T12:42:17;10.10;;;4.40;;
5452;SDS011;2749;53.576;9.822;2023-09-18T12:44:43;6.20;;;3.83;;
5452;SDS011;2749;53.576;9.822;2023-09-18T12:47:09;5.73;;;3.87;;
5452;SDS011;2749;53.576;9.822;2023-09-18T12:49:35;3.40;;;3.10;;
5452;SDS011;2749;53.576;9.822;2023-09-18T12:52:02;4.53;;;4.00;;
5452;SDS011;2749;53.576;9.822;2023-09-18T12:57:08;7.87;;;4.03;;
5452;SDS011;2749;53.576;9.822;2023-09-18T12:59:35;6.20;;;3.07;;
5452;SDS011;2749;53.576;9.822;2023-09-18T13:02:05;7.30;;;3.40;;
5452;SDS011;2749;53.576;9.822;2023-09-18T13:04:31;9.87;;;3.37;;
5452;SDS011;2749;53.576;9.822;2023-09-18T13:07:08;8.87;;;4.57;;
5452;SDS011;2749;53.576;9.822;2023-09-18T13:09:35;5.80;;;3.27;;
5452;SDS011;2749;53.576;9.822;2023-09-18T13:12:02;3.80;;;3.20;;
5452;SDS011;2749;53.576;9.822;2023-09-18T13:14:28;5.93;;;4.13;;
5452;SDS011;2749;53.576;9.822;2023-09-18T13:17:00;8.20;;;3.93;;
5452;SDS011;2749;53.576;9.822;2023-09-18T13:19:29;4.43;;;3.10;;
5452;SDS011;2749;53.576;9.822;2023-09-18T13:21:55;4.60;;;3.30;;
5452;SDS011;2749;53.576;9.822;2023-09-18T13:24:39;3.93;;;3.33;;
5452;SDS011;2749;53.576;9.822;2023-09-18T13:27:05;4.50;;;4.00;;
5452;SDS011;2749;53.576;9.822;2023-09-18T13:29:31;6.43;;;3.10;;
5452;SDS011;2749;53.576;9.822;2023-09-18T13:31:57;3.17;;;2.87;;
5452;SDS011;2749;53.576;9.822;2023-09-18T13:34:25;4.87;;;3.90;;
5452;SDS011;2749;53.576;9.822;2023-09-18T13:36:51;11.20;;;3.43;;
5452;SDS011;2749;53.576;9.822;2023-09-18T13:39:17;7.20;;;4.40;;
5452;SDS011;2749;53.576;9.822;2023-09-18T13:41:43;5.33;;;3.70;;
5452;SDS011;2749;53.576;9.822;2023-09-18T13:44:09;4.27;;;3.53;;
5452;SDS011;2749;53.576;9.822;2023-09-18T13:46:36;4.67;;;3.20;;
5452;SDS011;2749;53.576;9.822;2023-09-18T13:49:03;6.70;;;3.77;;
5452;SDS011;2749;53.576;9.822;2023-09-18T13:51:30;3.33;;;3.13;;
5452;SDS011;2749;53.576;9.822;2023-09-18T13:53:56;4.30;;;3.90;;
5452;SDS011;2749;53.576;9.822;2023-09-18T13:56:22;4.53;;;3.80;;
5452;SDS011;2749;53.576;9.822;2023-09-18T13:58:52;7.03;;;3.40;;
5452;SDS011;2749;53.576;9.822;2023-09-18T14:01:18;8.03;;;3.43;;
5452;SDS011;2749;53.576;9.822;2023-09-18T14:03:44;6.10;;;3.30;;
5452;SDS011;2749;53.576;9.822;2023-09-18T14:06:10;6.87;;;4.03;;
5452;SDS011;2749;53.576;9.822;2023-09-18T14:08:36;4.50;;;4.10;;
5452;SDS011;2749;53.576;9.822;2023-09-18T14:11:04;7.27;;;3.40;;
5452;SDS011;2749;53.576;9.822;2023-09-18T14:13:31;5.10;;;3.10;;
5452;SDS011;2749;53.576;9.822;2023-09-18T14:15:57;5.57;;;3.30;;
5452;SDS011;2749;53.576;9.822;2023-09-18T14:18:23;3.67;;;3.00;;
5452;SDS011;2749;53.576;9.822;2023-09-18T14:20:49;5.47;;;3.10;;
5452;SDS011;2749;53.576;9.822;2023-09-18T14:23:15;5.03;;;3.70;;
5452;SDS011;2749;53.576;9.822;2023-09-18T14:25:41;5.50;;;3.00;;
5452;SDS011;2749;53.576;9.822;2023-09-18T14:28:07;9.10;;;3.57;;
5452;SDS011;2749;53.576;9.822;2023-09-18T14:30:33;6.87;;;3.37;;
5452;SDS011;2749;53.576;9.822;2023-09-18T14:32:59;7.20;;;3.63;;
5452;SDS011;2749;53.576;9.822;2023-09-18T14:35:26;5.30;;;3.00;;
5452;SDS011;2749;53.576;9.822;2023-09-18T14:37:52;4.23;;;3.00;;
5452;SDS011;2749;53.576;9.822;2023-09-18T14:40:18;5.80;;;3.80;;
5452;SDS011;2749;53.576;9.822;2023-09-18T14:42:45;4.20;;;3.60;;
5452;SDS011;2749;53.576;9.822;2023-09-18T14:45:11;4.90;;;2.90;;
5452;SDS011;2749;53.576;9.822;2023-09-18T14:47:38;5.10;;;4.00;;
5452;SDS011;2749;53.576;9.822;2023-09-18T14:50:05;3.83;;;3.37;;
5452;SDS011;2749;53.576;9.822;2023-09-18T14:52:31;2.83;;;2.60;;
5452;SDS011;2749;53.576;9.822;2023-09-18T14:54:57;3.73;;;3.43;;
5452;SDS011;2749;53.576;9.822;2023-09-18T14:57:25;4.23;;;3.83;;
5452;SDS011;2749;53.576;9.822;2023-09-18T14:59:51;3.77;;;3.47;;
5452;SDS011;2749;53.576;9.822;2023-09-18T15:02:17;4.90;;;2.90;;
5452;SDS011;2749;53.576;9.822;2023-09-18T15:04:44;3.60;;;3.40;;
5452;SDS011;2749;53.576;9.822;2023-09-18T15:07:10;7.57;;;3.87;;
5452;SDS011;2749;53.576;9.822;2023-09-18T15:09:36;2.90;;;2.70;;
5452;SDS011;2749;53.576;9.822;2023-09-18T15:12:03;4.13;;;3.57;;
5452;SDS011;2749;53.576;9.822;2023-09-18T15:14:29;4.33;;;3.00;;
5452;SDS011;2749;53.576;9.822;2023-09-18T15:16:55;3.33;;;3.03;;
5452;SDS011;2749;53.576;9.822;2023-09-18T15:19:21;3.67;;;3.17;;
5452;SDS011;2749;53.576;9.822;2023-09-18T15:21:47;4.90;;;3.43;;
5452;SDS011;2749;53.576;9.822;2023-09-18T15:24:13;3.10;;;2.43;;
5452;SDS011;2749;53.576;9.822;2023-09-18T15:26:39;3.80;;;2.67;;
5452;SDS011;2749;53.576;9.822;2023-09-18T15:29:05;6.40;;;2.80;;